Time;durP1;ratioP1;P1;durP2;ratioP2;P2;SDS_P1;SDS_P2;PMS_P1;PMS_P2;Temp;Humidity;BMP_temperature;BMP_pressure;BME280_temperature;BME280_humidity;BME280_pressure;Samples;Min_cycle;Max_cycle;Signal;HPM_P1;HPM_P2
2022/10/28 00:00:25;;;;;;;16.63;8.90;;;15.10;99.90;;;;;;4960433;28;20090;-82
2022/10/28 00:02:50;;;;;;;18.88;8.30;;;15.10;99.90;;;;;;4952765;28;20039;-76
2022/10/28 00:05:16;;;;;;;11.13;6.90;;;15.10;99.90;;;;;;4970105;28;20062;-77
2022/10/28 00:07:42;;;;;;;14.15;8.05;;;15.00;99.90;;;;;;4985983;28;20087;-74
2022/10/28 00:10:08;;;;;;;13.07;8.25;;;15.00;99.90;;;;;;4943141;28;20048;-77
2022/10/28 00:12:35;;;;;;;14.18;8.27;;;15.10;99.90;;;;;;4958952;28;20043;-78
2022/10/28 00:15:01;;;;;;;16.67;8.05;;;15.10;99.90;;;;;;4941677;28;20521;-83
2022/10/28 00:17:26;;;;;;;15.77;9.30;;;15.10;99.90;;;;;;4941578;28;20084;-84
2022/10/28 00:19:52;;;;;;;19.85;8.50;;;15.10;99.90;;;;;;4937751;28;20391;-80
2022/10/28 00:22:17;;;;;;;11.45;8.27;;;15.10;99.90;;;;;;4944442;28;20090;-85
2022/10/28 00:24:43;;;;;;;16.52;9.77;;;15.00;99.90;;;;;;4925508;29;20143;-83
2022/10/28 00:27:09;;;;;;;17.88;9.73;;;15.10;99.90;;;;;;4931885;29;20446;-80
2022/10/28 00:29:34;;;;;;;21.05;9.98;;;15.00;99.90;;;;;;4916346;28;20063;-83
2022/10/28 00:32:00;;;;;;;21.10;9.73;;;15.10;99.90;;;;;;4934541;28;20054;-84
2022/10/28 00:34:26;;;;;;;18.65;9.13;;;15.10;99.90;;;;;;4949791;28;20127;-84
2022/10/28 00:36:51;;;;;;;16.80;8.38;;;15.20;99.90;;;;;;4934948;28;20101;-82
2022/10/28 00:39:23;;;;;;;18.95;8.60;;;15.20;99.90;;;;;;4936353;28;20135;-85
2022/10/28 00:41:57;;;;;;;13.07;9.05;;;15.20;99.90;;;;;;4942550;28;20101;-89
2022/10/28 00:44:42;;;;;;;17.55;8.90;;;15.20;99.90;;;;;;4959959;28;20043;-75
2022/10/28 00:47:36;;;;;;;20.42;10.00;;;15.10;99.90;;;;;;4947596;28;20058;-85
2022/10/28 00:50:17;;;;;;;15.18;8.88;;;15.10;99.90;;;;;;4927252;28;20811;-87
2022/10/28 00:52:46;;;;;;;19.25;9.70;;;15.10;99.90;;;;;;4906716;29;20055;-87
2022/10/28 00:55:15;;;;;;;20.50;9.10;;;15.10;99.90;;;;;;4926737;29;20171;-84
2022/10/28 00:57:41;;;;;;;17.58;9.23;;;15.10;99.90;;;;;;4959806;28;20039;-86
2022/10/28 01:00:07;;;;;;;16.70;9.80;;;15.10;99.90;;;;;;4932763;29;20055;-75
2022/10/28 01:02:44;;;;;;;13.18;8.52;;;15.00;99.90;;;;;;4947674;28;20049;-87
2022/10/28 01:05:11;;;;;;;13.85;8.75;;;15.00;99.90;;;;;;4929401;29;20103;-87
2022/10/28 01:07:37;;;;;;;17.42;8.98;;;14.90;99.90;;;;;;4955927;28;20047;-82
2022/10/28 01:10:03;;;;;;;15.65;9.75;;;14.90;99.90;;;;;;5012838;23;20452;-81
2022/10/28 01:12:31;;;;;;;18.48;10.10;;;14.90;99.90;;;;;;4995434;28;20046;-84
2022/10/28 01:15:14;;;;;;;17.52;10.73;;;14.80;99.90;;;;;;4983768;28;20497;-80
2022/10/28 01:18:17;;;;;;;17.55;8.77;;;14.90;99.90;;;;;;4987553;28;20055;-83
2022/10/28 01:21:04;;;;;;;14.68;9.65;;;14.80;99.90;;;;;;4979349;28;20061;-84
2022/10/28 01:23:46;;;;;;;19.80;10.90;;;14.70;99.90;;;;;;4988511;28;20118;-85
2022/10/28 01:26:30;;;;;;;14.57;8.25;;;14.70;99.90;;;;;;4980863;28;20389;-75
2022/10/28 01:29:04;;;;;;;15.68;10.90;;;14.60;99.90;;;;;;4990674;28;20046;-85
2022/10/28 01:31:36;;;;;;;19.48;11.60;;;14.60;99.90;;;;;;4992554;28;20038;-85
2022/10/28 01:34:11;;;;;;;17.92;10.00;;;14.60;99.90;;;;;;4990727;28;20730;-84
2022/10/28 01:36:57;;;;;;;17.73;10.18;;;14.60;99.90;;;;;;4992015;28;20096;-85
2022/10/28 01:39:41;;;;;;;19.88;10.25;;;14.60;99.90;;;;;;4992386;28;20046;-85
2022/10/28 01:42:29;;;;;;;21.63;12.20;;;14.70;99.90;;;;;;4990464;28;20105;-85
2022/10/28 01:45:07;;;;;;;24.85;10.48;;;14.60;99.90;;;;;;4978597;28;20141;-74
2022/10/28 01:47:51;;;;;;;19.10;10.70;;;14.60;99.90;;;;;;4991617;28;20085;-84
2022/10/28 01:50:36;;;;;;;21.05;11.70;;;14.60;99.90;;;;;;4991282;28;20038;-80
2022/10/28 01:53:08;;;;;;;14.05;11.00;;;14.60;99.90;;;;;;4986966;28;20047;-85
2022/10/28 01:55:39;;;;;;;22.65;11.43;;;14.60;99.90;;;;;;4980317;28;20398;-84
2022/10/28 01:58:07;;;;;;;15.27;11.27;;;14.60;99.90;;;;;;4979212;28;20104;-81
2022/10/28 02:00:34;;;;;;;16.58;10.10;;;14.50;99.90;;;;;;4989816;28;20045;-85
2022/10/28 02:03:00;;;;;;;20.80;11.77;;;14.50;99.90;;;;;;4990561;28;20054;-83
2022/10/28 02:05:48;;;;;;;16.67;10.02;;;14.50;99.90;;;;;;4990850;28;20397;-84
2022/10/28 02:08:17;;;;;;;22.13;11.50;;;14.50;99.90;;;;;;4973020;28;20100;-81
2022/10/28 02:10:59;;;;;;;18.42;10.48;;;14.50;99.90;;;;;;4980700;28;20061;-83
2022/10/28 02:13:54;;;;;;;22.05;10.13;;;14.40;99.90;;;;;;4981318;28;20062;-85
2022/10/28 02:16:34;;;;;;;17.58;12.15;;;14.50;99.90;;;;;;4984795;28;20042;-86
2022/10/28 02:19:12;;;;;;;26.05;11.98;;;14.40;99.90;;;;;;4997764;28;20059;-84
2022/10/28 02:21:59;;;;;;;15.07;10.50;;;14.40;99.90;;;;;;4996584;28;20057;-76
2022/10/28 02:24:39;;;;;;;20.17;10.50;;;14.40;99.90;;;;;;5012484;28;20046;-86
2022/10/28 02:27:10;;;;;;;;;;;14.40;99.90;;;;;;4981171;28;20047;-86
2022/10/28 02:29:49;;;;;;;17.30;10.43;;;14.30;99.90;;;;;;4992142;28;19922;-80
2022/10/28 02:32:20;;;;;;;17.67;11.13;;;14.20;99.90;;;;;;4980334;28;20040;-78
2022/10/28 02:34:48;;;;;;;16.20;11.45;;;14.30;99.90;;;;;;4991362;28;20046;-87
2022/10/28 02:37:22;;;;;;;18.42;10.32;;;14.30;99.90;;;;;;4978832;28;20058;-85
2022/10/28 02:39:55;;;;;;;24.88;13.32;;;14.40;99.90;;;;;;4982704;28;20049;-86
2022/10/28 02:42:25;;;;;;;20.13;12.35;;;14.30;99.90;;;;;;4983081;28;20046;-78
2022/10/28 02:44:56;;;;;;;19.88;11.85;;;14.30;99.90;;;;;;4993714;28;20097;-84
2022/10/28 02:47:28;;;;;;;16.25;10.23;;;14.30;99.90;;;;;;4985515;28;20085;-81
2022/10/28 02:49:59;;;;;;;19.98;10.18;;;14.20;99.90;;;;;;4991214;28;20081;-83
2022/10/28 02:52:27;;;;;;;20.52;11.02;;;14.30;99.90;;;;;;4979589;28;20043;-84
2022/10/28 02:55:02;;;;;;;24.88;11.43;;;14.30;99.90;;;;;;4989247;28;20500;-77
2022/10/28 02:57:34;;;;;;;15.57;10.65;;;14.30;99.90;;;;;;4980311;28;20050;-85
2022/10/28 03:00:04;;;;;;;22.70;11.18;;;14.20;99.90;;;;;;4991719;28;20100;-85
2022/10/28 03:02:30;;;;;;;22.95;11.20;;;14.30;99.90;;;;;;4990207;28;20927;-86
2022/10/28 03:04:56;;;;;;;30.58;12.52;;;14.20;99.90;;;;;;4973680;28;20070;-85
2022/10/28 03:07:22;;;;;;;15.00;11.23;;;14.20;99.90;;;;;;4990085;28;20470;-83
2022/10/28 03:09:47;;;;;;;23.30;10.65;;;14.20;99.90;;;;;;4990065;28;20057;-81
2022/10/28 03:12:13;;;;;;;23.30;11.25;;;14.20;99.90;;;;;;4989717;28;20107;-85
2022/10/28 03:14:39;;;;;;;17.38;12.30;;;14.20;99.90;;;;;;4991581;28;20054;-85
2022/10/28 03:17:06;;;;;;;27.30;13.18;;;14.30;99.90;;;;;;4989838;28;20409;-84
2022/10/28 03:19:32;;;;;;;20.80;13.45;;;14.30;99.90;;;;;;4988491;28;20057;-80
2022/10/28 03:21:58;;;;;;;17.63;10.77;;;14.20;99.90;;;;;;4989160;28;20038;-84
2022/10/28 03:24:23;;;;;;;14.73;11.07;;;14.30;99.90;;;;;;4984242;28;20101;-82
2022/10/28 03:26:49;;;;;;;16.05;11.18;;;14.20;99.90;;;;;;4983612;28;20100;-79
2022/10/28 03:29:15;;;;;;;20.15;10.88;;;14.30;99.90;;;;;;4979707;28;20467;-81
2022/10/28 03:31:40;;;;;;;24.30;12.85;;;14.20;99.90;;;;;;4968929;28;20049;-83
2022/10/28 03:34:06;;;;;;;15.40;10.23;;;14.20;99.90;;;;;;4986076;28;20407;-81
2022/10/28 03:36:32;;;;;;;15.30;11.70;;;14.20;99.90;;;;;;4985781;28;20050;-82
2022/10/28 03:38:57;;;;;;;18.73;12.23;;;14.20;99.90;;;;;;4985464;28;20528;-80
2022/10/28 03:41:23;;;;;;;22.02;11.85;;;14.10;99.90;;;;;;4986013;28;20461;-81
2022/10/28 03:43:49;;;;;;;28.48;11.23;;;14.20;99.90;;;;;;4986233;28;20093;-82
2022/10/28 03:46:14;;;;;;;17.10;11.30;;;14.10;99.90;;;;;;4985242;28;20539;-82
2022/10/28 03:48:40;;;;;;;19.13;11.15;;;14.20;99.90;;;;;;4986268;28;20035;-82
2022/10/28 03:51:05;;;;;;;18.45;10.57;;;14.10;99.90;;;;;;4985554;28;20068;-82
2022/10/28 03:53:31;;;;;;;23.17;11.80;;;14.20;99.90;;;;;;4987293;28;20046;-82
2022/10/28 03:56:00;;;;;;;20.63;11.50;;;14.20;99.90;;;;;;4971042;28;20088;-81
2022/10/28 03:58:26;;;;;;;16.05;9.65;;;14.10;99.90;;;;;;4989475;28;20050;-81
2022/10/28 04:00:53;;;;;;;19.00;13.27;;;14.10;99.90;;;;;;4980140;28;20114;-83
2022/10/28 04:03:21;;;;;;;21.15;10.98;;;14.10;99.90;;;;;;4987411;28;20074;-81
2022/10/28 04:05:47;;;;;;;17.73;10.77;;;14.10;99.90;;;;;;4990179;28;20116;-81
2022/10/28 04:08:13;;;;;;;22.67;11.40;;;14.10;99.90;;;;;;4990568;28;20047;-81
2022/10/28 04:10:39;;;;;;;24.58;11.48;;;14.10;99.90;;;;;;4966684;28;20089;-81
2022/10/28 04:13:06;;;;;;;16.20;11.13;;;14.10;99.90;;;;;;4991439;28;20077;-82
2022/10/28 04:15:32;;;;;;;19.42;13.18;;;14.10;99.90;;;;;;4991446;28;20064;-81
2022/10/28 04:17:58;;;;;;;21.08;11.50;;;14.10;99.90;;;;;;4989242;28;20053;-77
2022/10/28 04:20:24;;;;;;;17.10;12.60;;;14.20;99.90;;;;;;4986381;28;20064;-80
2022/10/28 04:22:50;;;;;;;20.70;11.75;;;14.10;99.90;;;;;;4991442;28;20042;-76
2022/10/28 04:25:16;;;;;;;21.60;12.40;;;14.00;99.90;;;;;;4985849;28;20042;-82
2022/10/28 04:27:45;;;;;;;20.38;13.15;;;14.10;99.90;;;;;;4984601;28;20486;-80
2022/10/28 04:30:11;;;;;;;17.60;11.73;;;14.10;99.90;;;;;;4988260;28;20097;-80
2022/10/28 04:32:38;;;;;;;24.13;13.50;;;14.00;99.90;;;;;;4982254;28;20490;-75
2022/10/28 04:35:04;;;;;;;25.42;12.68;;;14.10;99.90;;;;;;4989334;28;20070;-80
2022/10/28 04:37:30;;;;;;;24.77;13.10;;;14.00;99.90;;;;;;4988370;28;20043;-80
2022/10/28 04:39:55;;;;;;;20.95;11.63;;;14.00;99.90;;;;;;4991735;28;20093;-82
2022/10/28 04:42:22;;;;;;;32.67;14.82;;;14.10;99.90;;;;;;4990391;28;20112;-81
2022/10/28 04:44:48;;;;;;;22.63;13.95;;;14.10;99.90;;;;;;4988395;28;20093;-79
2022/10/28 04:47:14;;;;;;;25.77;13.10;;;14.00;99.90;;;;;;4993070;28;20141;-80
2022/10/28 04:49:39;;;;;;;19.02;12.75;;;14.00;99.90;;;;;;4992278;28;20532;-81
2022/10/28 04:52:05;;;;;;;25.33;13.75;;;14.00;99.90;;;;;;4993870;28;20042;-81
2022/10/28 04:54:31;;;;;;;22.35;13.63;;;14.00;99.90;;;;;;4991569;28;20046;-81
2022/10/28 04:56:56;;;;;;;38.15;16.65;;;14.00;99.90;;;;;;4996516;28;20042;-81
2022/10/28 04:59:22;;;;;;;21.48;13.48;;;14.00;99.90;;;;;;4995500;28;20390;-82
2022/10/28 05:01:47;;;;;;;21.58;14.50;;;13.90;99.90;;;;;;4999192;28;20094;-81
2022/10/28 05:04:13;;;;;;;25.08;15.05;;;14.00;99.90;;;;;;5006993;28;20094;-81
2022/10/28 05:06:39;;;;;;;25.20;14.95;;;14.00;99.90;;;;;;5007662;28;20142;-75
2022/10/28 05:09:04;;;;;;;32.50;16.02;;;13.90;99.90;;;;;;4988944;28;20100;-82
2022/10/28 05:11:30;;;;;;;25.75;13.85;;;14.00;99.90;;;;;;4992643;28;20136;-80
2022/10/28 05:13:55;;;;;;;24.02;14.45;;;14.00;99.90;;;;;;4994467;28;20112;-77
2022/10/28 05:16:21;;;;;;;26.25;14.45;;;14.00;99.90;;;;;;5000733;28;20558;-76
2022/10/28 05:18:47;;;;;;;28.13;15.90;;;14.00;99.90;;;;;;5002208;28;20063;-81
2022/10/28 05:21:12;;;;;;;22.10;13.85;;;13.90;99.90;;;;;;5006796;28;20042;-78
2022/10/28 05:23:38;;;;;;;27.33;13.85;;;13.90;99.90;;;;;;5007700;28;20605;-83
2022/10/28 05:26:04;;;;;;;24.35;15.90;;;13.90;99.90;;;;;;4995962;28;20121;-84
2022/10/28 05:28:29;;;;;;;27.70;14.85;;;13.90;99.90;;;;;;4981786;28;20042;-82
2022/10/28 05:30:55;;;;;;;31.80;15.15;;;13.90;99.90;;;;;;4977811;28;20398;-83
2022/10/28 05:33:21;;;;;;;31.45;17.15;;;13.80;99.90;;;;;;4977578;28;20053;-82
2022/10/28 05:35:47;;;;;;;27.45;15.98;;;13.80;99.90;;;;;;4973502;28;20046;-82
2022/10/28 05:38:13;;;;;;;40.67;16.10;;;13.80;99.90;;;;;;4987326;28;20042;-81
2022/10/28 05:40:38;;;;;;;25.10;15.38;;;13.80;99.90;;;;;;4990710;28;20047;-75
2022/10/28 05:43:04;;;;;;;32.90;15.60;;;13.80;99.90;;;;;;4979456;28;20061;-81
2022/10/28 05:45:30;;;;;;;21.77;12.93;;;13.80;99.90;;;;;;4989829;28;20042;-83
2022/10/28 05:47:55;;;;;;;27.25;15.85;;;13.80;99.90;;;;;;4979504;28;20374;-82
2022/10/28 05:50:22;;;;;;;27.00;16.08;;;13.80;99.90;;;;;;4980733;28;20046;-83
2022/10/28 05:52:48;;;;;;;26.33;14.18;;;13.80;99.90;;;;;;4988910;28;20034;-75
2022/10/28 05:55:15;;;;;;;29.27;14.73;;;13.80;99.90;;;;;;4990469;28;20050;-83
2022/10/28 05:57:41;;;;;;;29.27;17.00;;;13.70;99.90;;;;;;4992101;28;20046;-77
2022/10/28 06:00:07;;;;;;;24.60;15.02;;;13.70;99.90;;;;;;4985018;28;20046;-83
2022/10/28 06:02:33;;;;;;;25.92;15.00;;;13.70;99.90;;;;;;4974281;28;20042;-82
2022/10/28 06:04:58;;;;;;;23.30;15.40;;;13.70;99.90;;;;;;4979736;28;20129;-81
2022/10/28 06:07:24;;;;;;;24.60;14.55;;;13.70;99.90;;;;;;4984664;28;20519;-82
2022/10/28 06:09:50;;;;;;;27.35;14.57;;;13.80;99.90;;;;;;4990041;28;20046;-80
2022/10/28 06:12:16;;;;;;;32.30;15.45;;;13.70;99.90;;;;;;4991780;28;20049;-83
2022/10/28 06:14:41;;;;;;;23.75;13.82;;;13.70;99.90;;;;;;4990567;28;20129;-74
2022/10/28 06:17:08;;;;;;;26.27;13.77;;;13.70;99.90;;;;;;4990611;28;20122;-80
2022/10/28 06:19:33;;;;;;;25.40;12.98;;;13.70;99.90;;;;;;4987750;28;20477;-80
2022/10/28 06:21:59;;;;;;;30.88;16.60;;;13.70;99.90;;;;;;4979781;28;20081;-80
2022/10/28 06:24:24;;;;;;;28.45;15.75;;;13.70;99.90;;;;;;4977990;28;20050;-82
2022/10/28 06:26:50;;;;;;;19.98;13.00;;;13.70;99.90;;;;;;4987031;28;20050;-87
2022/10/28 06:29:16;;;;;;;26.83;14.07;;;13.60;99.90;;;;;;4988763;28;20047;-85
2022/10/28 06:31:42;;;;;;;28.80;14.75;;;13.70;99.90;;;;;;4991765;28;20379;-76
2022/10/28 06:34:10;;;;;;;21.27;14.60;;;13.70;99.90;;;;;;5003520;28;20050;-87
2022/10/28 06:36:36;;;;;;;20.52;13.93;;;13.70;99.90;;;;;;4992506;28;20045;-84
2022/10/28 06:39:02;;;;;;;25.33;14.93;;;13.70;99.90;;;;;;4977803;28;20054;-86
2022/10/28 06:41:27;;;;;;;25.23;14.52;;;13.60;99.90;;;;;;4992218;28;20053;-80
2022/10/28 06:43:53;;;;;;;27.48;14.32;;;13.60;99.90;;;;;;4990243;28;20038;-84
2022/10/28 06:46:19;;;;;;;29.85;15.00;;;13.60;99.90;;;;;;4990063;28;20050;-84
2022/10/28 06:48:45;;;;;;;29.77;13.60;;;13.60;99.90;;;;;;4981683;28;20047;-82
2022/10/28 06:51:10;;;;;;;23.65;12.45;;;13.60;99.90;;;;;;4993831;28;20081;-86
2022/10/28 06:53:36;;;;;;;25.20;13.98;;;13.60;99.90;;;;;;4981364;28;20034;-85
2022/10/28 06:56:02;;;;;;;28.88;15.05;;;13.60;99.90;;;;;;5000421;28;20116;-80
2022/10/28 06:58:27;;;;;;;31.52;13.57;;;13.60;99.90;;;;;;4995502;28;20444;-85
2022/10/28 07:00:54;;;;;;;23.67;12.90;;;13.70;99.90;;;;;;4988999;28;20035;-77
2022/10/28 07:03:20;;;;;;;19.67;13.20;;;13.70;99.90;;;;;;4976532;28;20051;-83
2022/10/28 07:05:48;;;;;;;27.15;14.50;;;13.70;99.90;;;;;;4983220;28;20098;-80
2022/10/28 07:08:14;;;;;;;16.08;11.88;;;13.70;99.90;;;;;;4972243;28;20101;-82
2022/10/28 07:10:40;;;;;;;23.70;13.50;;;13.80;99.90;;;;;;4979887;28;20062;-86
2022/10/28 07:13:06;;;;;;;21.35;11.75;;;13.80;99.90;;;;;;4992412;28;20050;-86
2022/10/28 07:15:31;;;;;;;20.60;12.13;;;13.80;99.90;;;;;;4990904;28;20165;-78
2022/10/28 07:17:58;;;;;;;20.35;11.10;;;13.90;99.90;;;;;;4997615;28;20477;-76
2022/10/28 07:20:25;;;;;;;20.02;11.07;;;13.90;99.90;;;;;;4993884;28;20038;-82
2022/10/28 07:22:59;;;;;;;26.15;11.55;;;14.00;99.90;;;;;;4998661;28;20046;-83
2022/10/28 07:25:26;;;;;;;25.05;13.23;;;14.00;99.90;;;;;;4990018;28;20061;-88
2022/10/28 07:27:52;;;;;;;21.08;11.23;;;14.10;99.90;;;;;;4987801;28;20064;-90
2022/10/28 07:30:17;;;;;;;20.80;10.15;;;14.20;99.90;;;;;;4990711;28;20046;-89
2022/10/28 07:32:43;;;;;;;23.30;9.55;;;14.30;99.90;;;;;;4973702;28;20034;-83
2022/10/28 07:35:09;;;;;;;22.40;10.90;;;14.30;99.90;;;;;;4986830;28;20046;-91
2022/10/28 07:37:36;;;;;;;24.13;10.45;;;14.40;99.90;;;;;;4981395;28;20041;-85
2022/10/28 07:40:02;;;;;;;21.95;9.65;;;14.40;99.90;;;;;;4990192;28;20426;-83
2022/10/28 07:42:28;;;;;;;21.77;9.68;;;14.50;99.90;;;;;;4997845;28;20109;-80
2022/10/28 07:44:53;;;;;;;17.48;8.65;;;14.60;99.90;;;;;;4979383;28;20030;-83
2022/10/28 07:47:20;;;;;;;28.50;10.50;;;14.60;99.90;;;;;;5005538;28;20042;-77
2022/10/28 07:49:46;;;;;;;25.67;9.32;;;14.70;99.90;;;;;;5009805;28;20061;-75
2022/10/28 07:52:12;;;;;;;18.70;7.60;;;14.80;99.90;;;;;;5008990;28;20019;-74
2022/10/28 07:54:37;;;;;;;21.83;8.30;;;14.90;99.90;;;;;;5003571;28;20081;-73
2022/10/28 07:57:03;;;;;;;14.57;7.90;;;15.00;99.90;;;;;;5007945;28;20038;-74
2022/10/28 07:59:29;;;;;;;15.60;7.55;;;15.00;99.90;;;;;;4998254;28;20046;-80
2022/10/28 08:01:54;;;;;;;15.65;7.18;;;15.10;99.90;;;;;;4994530;28;20042;-83
2022/10/28 08:04:20;;;;;;;24.15;8.77;;;15.20;99.90;;;;;;4981799;28;20070;-77
2022/10/28 08:06:46;;;;;;;16.60;8.23;;;15.20;99.90;;;;;;4987248;28;20125;-77
2022/10/28 08:09:11;;;;;;;12.18;6.88;;;15.20;99.90;;;;;;4989265;28;20105;-74
2022/10/28 08:11:37;;;;;;;19.45;7.38;;;15.30;99.90;;;;;;4994082;28;20436;-77
2022/10/28 08:14:03;;;;;;;13.20;7.22;;;15.30;99.90;;;;;;4990443;28;20079;-74
2022/10/28 08:16:29;;;;;;;16.73;6.68;;;15.40;99.90;;;;;;4989365;28;20053;-77
2022/10/28 08:18:55;;;;;;;26.77;8.75;;;15.50;99.90;;;;;;4991727;28;20043;-77
2022/10/28 08:21:22;;;;;;;15.23;6.28;;;15.60;99.90;;;;;;4990521;28;20053;-77
2022/10/28 08:23:48;;;;;;;12.68;7.45;;;15.70;99.90;;;;;;4989907;28;20134;-74
2022/10/28 08:26:15;;;;;;;17.75;6.45;;;15.80;99.90;;;;;;4973837;28;20360;-78
2022/10/28 08:28:41;;;;;;;18.13;8.10;;;15.90;99.90;;;;;;4995343;28;20495;-75
2022/10/28 08:31:08;;;;;;;15.18;8.52;;;15.90;99.90;;;;;;4991359;28;20047;-79
2022/10/28 08:33:36;;;;;;;19.25;7.97;;;15.90;99.90;;;;;;4989691;28;20270;-79
2022/10/28 08:36:02;;;;;;;17.15;8.00;;;16.00;99.90;;;;;;4989062;28;20046;-79
2022/10/28 08:38:28;;;;;;;17.90;6.38;;;16.10;99.90;;;;;;4974779;28;20065;-78
2022/10/28 08:40:59;;;;;;;19.05;6.03;;;16.10;99.90;;;;;;4989365;28;20089;-78
2022/10/28 08:43:53;;;;;;;18.13;6.15;;;16.10;99.90;;;;;;4983986;28;20133;-78
2022/10/28 08:46:42;;;;;;;13.48;6.03;;;16.20;99.90;;;;;;4989495;28;20420;-78
2022/10/28 08:49:13;;;;;;;18.25;7.18;;;16.30;99.90;;;;;;4992665;28;20053;-78
2022/10/28 08:51:57;;;;;;;15.07;6.10;;;16.30;99.90;;;;;;4990250;28;20086;-79
2022/10/28 08:54:39;;;;;;;14.10;7.68;;;16.30;99.90;;;;;;4989978;28;20045;-75
2022/10/28 08:57:11;;;;;;;13.50;5.88;;;16.30;99.90;;;;;;4991970;28;20057;-78
2022/10/28 08:59:40;;;;;;;32.53;7.28;;;16.30;99.90;;;;;;4992173;28;20046;-79
2022/10/28 09:02:14;;;;;;;17.50;7.88;;;16.40;99.90;;;;;;4990949;28;20050;-79
2022/10/28 09:04:43;;;;;;;35.67;8.23;;;16.40;99.90;;;;;;4984171;28;20122;-78
2022/10/28 09:07:17;;;;;;;20.58;7.30;;;16.40;99.90;;;;;;4992301;28;20047;-79
2022/10/28 09:09:44;;;;;;;21.13;6.03;;;16.40;99.90;;;;;;4991776;28;20082;-79
2022/10/28 09:12:40;;;;;;;12.70;6.07;;;16.40;99.90;;;;;;4983091;28;20065;-78
2022/10/28 09:15:21;;;;;;;21.38;6.30;;;16.40;99.90;;;;;;4981460;28;20043;-77
2022/10/28 09:17:54;;;;;;;19.33;7.13;;;16.50;99.90;;;;;;4988052;28;20527;-77
2022/10/28 09:20:55;;;;;;;9.68;5.72;;;16.50;99.90;;;;;;4990023;28;20469;-74
2022/10/28 09:23:31;;;;;;;29.85;8.95;;;16.50;99.90;;;;;;4990213;28;20060;-76
2022/10/28 09:26:06;;;;;;;25.50;8.90;;;16.40;99.90;;;;;;4991100;28;20425;-78
2022/10/28 09:29:03;;;;;;;15.27;5.88;;;16.50;99.90;;;;;;4989323;28;20046;-76
2022/10/28 09:31:39;;;;;;;39.72;10.25;;;16.50;99.90;;;;;;4988477;28;20046;-78
2022/10/28 09:34:35;;;;;;;11.75;6.10;;;16.50;99.90;;;;;;4988914;28;20048;-78
2022/10/28 09:37:16;;;;;;;18.58;7.88;;;16.50;99.90;;;;;;4968606;28;20050;-78
2022/10/28 09:39:48;;;;;;;18.77;7.30;;;16.50;99.90;;;;;;4986010;28;20050;-73
2022/10/28 09:42:19;;;;;;;36.55;7.50;;;16.50;99.90;;;;;;4989721;28;20401;-79
2022/10/28 09:45:12;;;;;;;16.00;6.40;;;16.60;99.90;;;;;;4987365;28;20073;-78
2022/10/28 09:47:44;;;;;;;19.00;8.32;;;16.70;99.90;;;;;;4990626;28;20134;-78
2022/10/28 09:50:18;;;;;;;18.20;6.65;;;16.70;99.90;;;;;;4990032;28;20154;-72
2022/10/28 09:53:10;;;;;;;11.88;5.80;;;16.70;99.90;;;;;;4987929;28;20066;-78
2022/10/28 09:55:36;;;;;;;19.23;6.47;;;16.80;99.90;;;;;;4981976;28;20105;-78
2022/10/28 09:58:03;;;;;;;24.33;7.75;;;16.90;99.90;;;;;;4989549;28;20054;-78
2022/10/28 10:00:29;;;;;;;20.35;7.25;;;16.90;99.90;;;;;;4978210;28;20043;-78
2022/10/28 10:02:56;;;;;;;19.35;6.20;;;17.00;99.90;;;;;;4967233;28;20053;-78
2022/10/28 10:05:23;;;;;;;20.50;6.25;;;17.00;99.90;;;;;;4982975;28;20053;-83
2022/10/28 10:08:02;;;;;;;17.38;5.88;;;17.00;99.90;;;;;;4978676;28;20042;-83
2022/10/28 10:10:43;;;;;;;17.85;6.05;;;17.10;99.90;;;;;;4978283;28;20116;-79
2022/10/28 10:13:11;;;;;;;12.10;5.82;;;17.10;99.90;;;;;;4983490;28;20066;-82
2022/10/28 10:15:42;;;;;;;14.90;6.05;;;17.20;99.90;;;;;;4986882;28;20050;-83
2022/10/28 10:18:15;;;;;;;14.63;5.57;;;17.20;99.90;;;;;;4987708;28;20085;-82
2022/10/28 10:20:54;;;;;;;14.02;6.38;;;17.30;99.90;;;;;;4989783;28;20038;-83
2022/10/28 10:23:34;;;;;;;15.10;5.32;;;17.40;99.90;;;;;;4986752;28;20046;-81
2022/10/28 10:26:31;;;;;;;13.93;6.63;;;17.60;99.90;;;;;;4987305;28;20480;-82
2022/10/28 10:28:58;;;;;;;14.45;6.10;;;17.70;99.90;;;;;;4969838;28;20141;-82
2022/10/28 10:31:28;;;;;;;20.70;5.93;;;17.80;99.90;;;;;;4985140;28;20056;-83
2022/10/28 10:33:57;;;;;;;21.63;6.20;;;17.80;99.90;;;;;;4993151;28;20026;-73
2022/10/28 10:36:27;;;;;;;16.52;5.65;;;17.80;99.90;;;;;;4989861;28;20062;-81
2022/10/28 10:38:55;;;;;;;19.95;5.43;;;17.80;99.90;;;;;;4977572;28;20034;-82
2022/10/28 10:41:42;;;;;;;17.70;5.97;;;17.80;99.90;;;;;;4987069;28;20046;-73
2022/10/28 10:44:19;;;;;;;13.32;5.78;;;17.80;99.90;;;;;;4980151;28;20121;-80
2022/10/28 10:46:48;;;;;;;15.88;5.53;;;17.80;99.90;;;;;;4987186;28;20046;-80
2022/10/28 10:49:14;;;;;;;14.80;4.97;;;17.80;99.90;;;;;;4982867;28;20034;-81
2022/10/28 10:51:55;;;;;;;15.68;6.60;;;17.90;99.90;;;;;;4981805;28;20057;-82
2022/10/28 10:54:21;;;;;;;15.32;5.93;;;18.00;99.90;;;;;;4977052;28;20042;-80
2022/10/28 10:56:47;;;;;;;22.17;5.10;;;18.10;99.90;;;;;;4983263;28;20038;-82
2022/10/28 10:59:33;;;;;;;20.10;6.13;;;18.30;99.90;;;;;;4986717;28;20046;-80
2022/10/28 11:01:59;;;;;;;16.05;6.13;;;18.30;99.90;;;;;;4983393;28;20042;-82
2022/10/28 11:04:26;;;;;;;11.52;4.90;;;18.30;99.90;;;;;;4985373;28;20134;-76
2022/10/28 11:06:54;;;;;;;14.68;5.97;;;18.40;99.90;;;;;;4969913;28;20078;-81
2022/10/28 11:09:38;;;;;;;18.75;6.50;;;18.50;99.90;;;;;;4987708;28;20045;-79
2022/10/28 11:12:35;;;;;;;18.10;6.50;;;18.50;99.90;;;;;;4974008;28;20062;-80
2022/10/28 11:15:02;;;;;;;16.77;5.10;;;18.70;99.90;;;;;;4964292;28;20137;-81
2022/10/28 11:17:30;;;;;;;16.40;5.78;;;18.80;99.90;;;;;;4986034;28;20042;-82
2022/10/28 11:19:58;;;;;;;24.02;6.40;;;18.80;99.90;;;;;;4986826;28;20062;-77
2022/10/28 11:22:50;;;;;;;16.20;5.47;;;18.80;99.90;;;;;;4982432;28;20035;-80
2022/10/28 11:25:37;;;;;;;21.38;7.88;;;18.90;99.90;;;;;;4981833;28;20163;-80
2022/10/28 11:28:08;;;;;;;17.00;5.18;;;18.90;99.90;;;;;;4986473;28;20053;-83
2022/10/28 11:30:37;;;;;;;13.93;5.13;;;18.90;99.90;;;;;;4982410;28;20125;-84
2022/10/28 11:33:10;;;;;;;19.10;6.18;;;19.00;99.90;;;;;;4985101;28;21309;-79
2022/10/28 11:35:51;;;;;;;20.90;6.55;;;19.00;99.90;;;;;;4985668;28;20050;-85
2022/10/28 11:38:36;;;;;;;15.48;4.88;;;19.20;99.90;;;;;;4988508;28;20042;-86
2022/10/28 11:41:04;;;;;;;14.27;5.40;;;19.30;99.90;;;;;;4988148;28;20058;-74
2022/10/28 11:44:07;;;;;;;16.85;5.57;;;19.40;99.90;;;;;;4988781;28;20054;-80
2022/10/28 11:46:55;;;;;;;17.20;4.55;;;19.40;99.90;;;;;;4943165;28;20157;-83
2022/10/28 11:49:34;;;;;;;13.90;5.78;;;19.40;99.90;;;;;;4974318;28;20362;-81
2022/10/28 11:52:16;;;;;;;13.60;5.18;;;19.40;99.90;;;;;;4987612;28;20451;-82
2022/10/28 11:55:24;;;;;;;22.85;5.22;;;19.40;99.90;;;;;;4973168;28;20090;-75
2022/10/28 11:58:09;;;;;;;19.60;7.03;;;19.30;99.90;;;;;;4933143;28;20057;-84
2022/10/28 12:00:50;;;;;;;14.75;6.03;;;19.20;99.90;;;;;;4987679;28;20046;-85
2022/10/28 12:03:15;;;;;;;16.33;6.55;;;19.30;99.90;;;;;;4985321;28;20130;-79
2022/10/28 12:05:41;;;;;;;17.90;5.28;;;19.20;99.90;;;;;;4976465;28;20584;-84
2022/10/28 12:08:45;;;;;;;9.30;4.72;;;19.20;99.90;;;;;;4986115;28;20046;-85
2022/10/28 12:11:45;;;;;;;17.77;5.47;;;19.10;99.90;;;;;;4969139;28;20061;-83
2022/10/28 12:14:26;;;;;;;12.07;5.97;;;19.10;99.90;;;;;;4986493;28;20062;-80
2022/10/28 12:16:56;;;;;;;27.60;6.68;;;19.10;99.90;;;;;;4985707;28;20122;-78
2022/10/28 12:19:33;;;;;;;16.45;6.13;;;19.00;99.90;;;;;;4987676;28;20064;-81
2022/10/28 12:22:18;;;;;;;16.52;5.40;;;19.00;99.90;;;;;;4968166;28;20078;-79
2022/10/28 12:24:45;;;;;;;16.58;5.82;;;19.00;99.90;;;;;;4983230;28;20043;-80
2022/10/28 12:27:17;;;;;;;16.35;6.00;;;19.00;99.90;;;;;;4986290;28;20035;-81
2022/10/28 12:29:48;;;;;;;18.83;5.28;;;19.00;99.90;;;;;;4987846;28;20081;-81
2022/10/28 12:32:21;;;;;;;16.70;6.50;;;19.00;99.90;;;;;;4983233;28;20069;-75
2022/10/28 12:34:57;;;;;;;17.65;5.03;;;19.00;99.90;;;;;;4982009;28;20082;-82
2022/10/28 12:37:29;;;;;;;19.52;6.50;;;19.00;99.90;;;;;;4975809;28;20061;-81
2022/10/28 12:39:54;;;;;;;21.67;7.95;;;19.10;99.90;;;;;;4984783;28;20051;-76
2022/10/28 12:42:31;;;;;;;22.48;6.05;;;19.10;99.90;;;;;;4986490;28;20049;-78
2022/10/28 12:45:00;;;;;;;18.38;6.00;;;19.10;99.90;;;;;;4985988;28;20069;-76
2022/10/28 12:47:44;;;;;;;18.02;6.60;;;19.10;99.90;;;;;;4984843;28;20061;-79
2022/10/28 12:50:41;;;;;;;16.58;5.70;;;19.10;99.90;;;;;;4983814;28;20057;-76
2022/10/28 12:53:39;;;;;;;21.13;7.22;;;19.10;99.90;;;;;;4968992;28;20051;-79